createdAt,value
2019-04-01T00:00:20.689Z,85.42
2019-04-01T00:01:20.629Z,85.14
2019-04-01T00:02:20.666Z,85.33
2019-04-01T00:03:20.581Z,85.42
2019-04-01T00:04:20.509Z,85.24
2019-04-01T00:05:20.482Z,86.28
2019-04-01T00:06:20.406Z,86.28
2019-04-01T00:07:20.377Z,85.90
2019-04-01T00:08:20.348Z,85.42
2019-04-01T00:09:20.318Z,85.71
2019-04-01T00:10:20.234Z,85.61
2019-04-01T00:11:20.203Z,85.24
2019-04-01T00:12:20.177Z,85.42
2019-04-01T00:13:20.118Z,85.14
2019-04-01T00:14:20.103Z,85.33
2019-04-01T00:15:20.029Z,85.52
2019-04-01T00:16:20.054Z,85.90
2019-04-01T00:17:19.960Z,85.33
2019-04-01T00:18:19.930Z,85.33
2019-04-01T00:19:20.032Z,85.05
2019-04-01T00:20:19.923Z,85.33
2019-04-01T00:21:19.790Z,86.28
2019-04-01T00:22:19.746Z,86.09
2019-04-01T00:23:19.724Z,86.75
2019-04-01T00:24:19.668Z,87.70
2019-04-01T00:25:19.606Z,88.17
2019-04-01T00:26:19.593Z,88.36
2019-04-01T00:27:19.527Z,88.07
2019-04-01T00:28:19.520Z,88.45
2019-04-01T00:29:19.436Z,88.83
2019-04-01T00:30:19.422Z,88.83
2019-04-01T00:31:19.357Z,87.98
2019-04-01T00:32:19.309Z,86.18
2019-04-01T00:33:19.289Z,87.13
2019-04-01T00:34:19.225Z,88.36
2019-04-01T00:35:20.916Z,88.45
2019-04-01T00:36:19.179Z,88.17
2019-04-01T00:37:19.090Z,88.17
2019-04-01T00:38:19.055Z,87.04
2019-04-01T00:39:19.078Z,86.94
2019-04-01T00:40:18.978Z,86.28
2019-04-01T00:41:18.928Z,85.99
2019-04-01T00:42:18.910Z,85.99
2019-04-01T00:43:18.885Z,86.47
2019-04-01T00:44:18.887Z,86.94
2019-04-01T00:45:18.774Z,87.04
2019-04-01T00:46:19.325Z,87.70
2019-04-01T00:47:18.695Z,87.70
2019-04-01T00:48:18.635Z,88.26
2019-04-01T00:49:18.744Z,87.70
2019-04-01T00:50:18.549Z,87.13
2019-04-01T00:51:18.510Z,86.75
2019-04-01T00:52:18.467Z,87.04
2019-04-01T00:53:18.437Z,86.37
2019-04-01T00:54:18.458Z,85.52
2019-04-01T00:55:18.370Z,86.37
2019-04-01T00:56:18.288Z,86.37
2019-04-01T00:57:18.340Z,87.60
2019-04-01T00:58:18.237Z,88.26
2019-04-01T00:59:18.174Z,88.07
2019-04-01T01:00:18.133Z,88.26
2019-04-01T01:01:18.253Z,87.98
2019-04-01T01:02:18.037Z,88.74
2019-04-01T01:03:18.007Z,88.64
2019-04-01T01:04:17.951Z,88.26
2019-04-01T01:05:17.935Z,87.41
2019-04-01T01:06:17.865Z,86.37
2019-04-01T01:07:17.862Z,86.47
2019-04-01T01:08:17.780Z,86.94
2019-04-01T01:09:17.744Z,86.37
2019-04-01T01:10:17.741Z,87.41
2019-04-01T01:11:17.652Z,88.55
2019-04-01T01:12:17.657Z,87.88
2019-04-01T01:13:17.615Z,87.13
2019-04-01T01:14:17.537Z,87.04
2019-04-01T01:15:17.598Z,86.94
2019-04-01T01:16:18.326Z,87.51
2019-04-01T01:17:17.422Z,88.36
2019-04-01T01:18:17.364Z,88.07
2019-04-01T01:19:17.319Z,88.74
2019-04-01T01:20:17.279Z,88.83
2019-04-01T01:21:17.251Z,88.83
2019-04-01T01:22:17.200Z,88.74
2019-04-01T01:23:17.166Z,88.17
2019-04-01T01:24:17.157Z,88.55
2019-04-01T01:25:17.062Z,88.17
2019-04-01T01:26:17.163Z,88.93
2019-04-01T01:27:16.997Z,89.59
2019-04-01T01:28:16.952Z,88.74
2019-04-01T01:29:16.925Z,88.36
2019-04-01T01:30:16.852Z,87.13
2019-04-01T01:31:16.813Z,86.75
2019-04-01T01:32:16.795Z,86.75
2019-04-01T01:33:16.758Z,87.13
2019-04-01T01:34:16.678Z,86.75
2019-04-01T01:35:16.681Z,87.70
2019-04-01T01:36:16.631Z,88.07
2019-04-01T01:37:16.561Z,88.36
2019-04-01T01:38:16.529Z,88.07
2019-04-01T01:39:16.474Z,87.23
2019-04-01T01:40:16.479Z,87.79
2019-04-01T01:41:16.381Z,88.83
2019-04-01T01:42:16.354Z,89.12
2019-04-01T01:43:16.300Z,88.26
2019-04-01T01:44:16.357Z,86.09
2019-04-01T01:45:16.224Z,85.61
2019-04-01T01:46:16.220Z,86.18
2019-04-01T01:47:16.161Z,88.83
2019-04-01T01:48:16.121Z,91.67
2019-04-01T01:49:16.041Z,92.99
2019-04-01T01:50:15.995Z,94.23
2019-04-01T01:51:15.975Z,95.17
2019-04-01T01:52:15.912Z,95.17
2019-04-01T01:53:15.865Z,95.36
2019-04-01T01:54:15.831Z,96.78
2019-04-01T01:55:15.781Z,98.96
2019-04-01T01:56:15.754Z,97.16
2019-04-01T01:57:15.707Z,96.21
2019-04-01T01:58:15.674Z,96.12
2019-04-01T01:59:15.619Z,98.10
2019-04-01T02:00:15.595Z,99.99
2019-04-01T02:01:15.524Z,99.99
2019-04-01T02:02:15.487Z,99.99
2019-04-01T02:03:15.605Z,99.99
2019-04-01T02:04:15.419Z,99.99
2019-04-01T02:05:15.366Z,99.99
2019-04-01T02:06:15.339Z,99.99
2019-04-01T02:07:15.301Z,99.99
2019-04-01T02:08:15.231Z,99.99
2019-04-01T02:09:15.213Z,99.99
2019-04-01T02:10:15.174Z,99.99
2019-04-01T02:11:15.112Z,99.99
2019-04-01T02:12:15.199Z,99.99
2019-04-01T02:13:15.023Z,99.99
2019-04-01T02:14:14.982Z,99.99
2019-04-01T02:15:14.935Z,99.99
2019-04-01T02:16:14.921Z,99.99
2019-04-01T02:17:14.840Z,99.99
2019-04-01T02:18:14.813Z,99.99
2019-04-01T02:19:14.784Z,99.99
2019-04-01T02:20:14.731Z,99.99
2019-04-01T02:21:14.690Z,99.99
2019-04-01T02:22:14.726Z,99.99
2019-04-01T02:23:14.626Z,99.99
2019-04-01T02:24:14.547Z,99.99
2019-04-01T02:25:14.541Z,99.99
2019-04-01T02:26:14.550Z,99.99
2019-04-01T02:27:14.439Z,99.99
2019-04-01T02:28:14.407Z,99.99
2019-04-01T02:29:14.404Z,99.99
2019-04-01T02:30:14.300Z,99.99
2019-04-01T02:31:14.262Z,99.99
2019-04-01T02:32:14.233Z,99.99
2019-04-01T02:33:14.202Z,99.99
2019-04-01T02:34:14.157Z,99.99
2019-04-01T02:35:14.094Z,99.99
2019-04-01T02:36:14.036Z,99.99
2019-04-01T02:37:14.082Z,99.99
2019-04-01T02:38:14.001Z,99.99
2019-04-01T02:39:13.908Z,99.99
2019-04-01T02:40:13.876Z,99.99
2019-04-01T02:41:13.895Z,99.99
2019-04-01T02:42:13.813Z,99.99
2019-04-01T02:43:13.880Z,99.99
2019-04-01T02:44:13.766Z,99.99
2019-04-01T02:45:13.666Z,99.99
2019-04-01T02:46:13.617Z,99.99
2019-04-01T02:47:13.598Z,99.99
2019-04-01T02:48:13.569Z,99.99
2019-04-01T02:49:13.678Z,99.99
2019-04-01T02:50:13.471Z,99.99
2019-04-01T02:51:13.402Z,99.99
2019-04-01T02:52:13.396Z,99.99
2019-04-01T02:53:13.348Z,99.99
2019-04-01T02:54:13.301Z,99.99
2019-04-01T02:55:13.250Z,99.99
2019-04-01T02:56:13.216Z,99.99
2019-04-01T02:57:13.178Z,99.99
2019-04-01T02:58:13.142Z,99.99
2019-04-01T02:59:13.155Z,99.99
2019-04-01T03:00:13.025Z,99.99
2019-04-01T03:01:12.987Z,99.99
2019-04-01T03:02:13.111Z,99.99
2019-04-01T03:03:12.904Z,99.99
2019-04-01T03:04:12.898Z,99.99
2019-04-01T03:05:12.825Z,99.99
2019-04-01T03:06:12.802Z,99.99
2019-04-01T03:07:12.763Z,99.99
2019-04-01T03:08:12.686Z,99.99
2019-04-01T03:09:12.661Z,99.99
2019-04-01T03:10:12.600Z,99.99
2019-04-01T03:11:12.573Z,99.99
2019-04-01T03:12:12.530Z,99.99
2019-04-01T03:13:12.505Z,99.99
2019-04-01T03:14:12.553Z,99.99
2019-04-01T03:15:12.404Z,99.99
2019-04-01T03:16:12.350Z,99.99
2019-04-01T03:17:12.329Z,99.99
2019-04-01T03:18:12.285Z,99.99
2019-04-01T03:19:12.234Z,99.99
2019-04-01T03:20:12.283Z,99.99
2019-04-01T03:21:12.147Z,99.99
2019-04-01T03:22:12.247Z,99.99
2019-04-01T03:23:12.051Z,99.99
2019-04-01T03:24:12.022Z,99.99
2019-04-01T03:25:12.017Z,99.99
2019-04-01T03:26:11.927Z,99.99
2019-04-01T03:27:12.100Z,99.99
2019-04-01T03:28:11.855Z,99.99
2019-04-01T03:29:11.815Z,99.99
2019-04-01T03:30:11.790Z,99.99
2019-04-01T03:31:11.739Z,99.99
2019-04-01T03:32:11.661Z,99.99
2019-04-01T03:33:11.658Z,99.99
2019-04-01T03:34:11.674Z,99.99
2019-04-01T03:35:11.568Z,99.99
2019-04-01T03:36:11.570Z,99.99
2019-04-01T03:37:11.452Z,99.99
2019-04-01T03:38:11.416Z,99.99
2019-04-01T03:39:11.367Z,99.99
2019-04-01T03:40:11.365Z,99.99
2019-04-01T03:41:11.330Z,99.99
2019-04-01T03:42:11.254Z,99.99
2019-04-01T03:43:11.200Z,99.99
2019-04-01T03:44:11.170Z,99.99
2019-04-01T03:45:11.197Z,99.99
2019-04-01T03:46:11.089Z,99.99
2019-04-01T03:47:11.057Z,99.99
2019-04-01T03:48:10.992Z,99.99
2019-04-01T03:49:11.002Z,99.99
2019-04-01T03:50:10.938Z,99.99
2019-04-01T03:51:10.931Z,99.99
2019-04-01T03:52:10.877Z,99.99
2019-04-01T03:53:10.777Z,99.99
2019-04-01T03:54:10.787Z,99.99
2019-04-01T03:55:10.699Z,99.99
2019-04-01T03:56:10.707Z,99.99
2019-04-01T03:57:10.598Z,99.99
2019-04-01T03:58:10.570Z,99.99
2019-04-01T03:59:10.561Z,99.99
2019-04-01T04:00:10.533Z,99.99
2019-04-01T04:01:10.428Z,99.99
2019-04-01T04:02:10.388Z,99.99
2019-04-01T04:03:10.343Z,99.99
2019-04-01T04:04:10.331Z,99.99
2019-04-01T04:05:10.262Z,99.99
2019-04-01T04:06:10.266Z,99.99
2019-04-01T04:07:10.175Z,99.99
2019-04-01T04:08:10.133Z,99.99
2019-04-01T04:09:10.090Z,99.99
2019-04-01T04:10:10.187Z,99.99
2019-04-01T04:11:10.022Z,99.99
2019-04-01T04:12:09.964Z,99.99
2019-04-01T04:13:09.937Z,99.99
2019-04-01T04:14:09.913Z,99.99
2019-04-01T04:15:09.884Z,99.99
2019-04-01T04:16:09.846Z,99.99
2019-04-01T04:17:09.835Z,99.99
2019-04-01T04:18:09.714Z,99.99
2019-04-01T04:19:09.681Z,99.99
2019-04-01T04:20:09.706Z,99.99
2019-04-01T04:21:09.577Z,99.99
2019-04-01T04:22:09.526Z,99.99
2019-04-01T04:23:09.620Z,99.99
2019-04-01T04:24:09.470Z,99.99
2019-04-01T04:25:09.443Z,99.99
2019-04-01T04:26:09.377Z,99.99
2019-04-01T04:27:11.345Z,99.99
2019-04-01T04:28:09.429Z,99.99
2019-04-01T04:29:09.258Z,99.99
2019-04-01T04:30:09.300Z,99.99
2019-04-01T04:31:09.145Z,99.99
2019-04-01T04:32:09.107Z,99.99
2019-04-01T04:33:09.061Z,99.99
2019-04-01T04:34:09.064Z,99.99
2019-04-01T04:35:08.974Z,99.99
2019-04-01T04:36:08.999Z,99.99
2019-04-01T04:37:08.913Z,99.99
2019-04-01T04:38:08.879Z,99.99
2019-04-01T04:39:08.801Z,99.99
2019-04-01T04:40:08.767Z,99.99
2019-04-01T04:41:08.743Z,99.99
2019-04-01T04:42:08.695Z,99.99
2019-04-01T04:43:08.643Z,99.99
2019-04-01T04:44:08.613Z,99.99
2019-04-01T04:45:08.535Z,99.99
2019-04-01T04:46:08.511Z,99.99
2019-04-01T04:47:08.478Z,99.99
2019-04-01T04:48:08.405Z,99.99
2019-04-01T04:49:08.372Z,99.99
2019-04-01T04:50:08.333Z,99.99
2019-04-01T04:51:08.305Z,99.99
2019-04-01T04:52:08.345Z,99.99
2019-04-01T04:53:08.248Z,99.99
2019-04-01T04:54:08.162Z,99.99
2019-04-01T04:55:08.128Z,99.99
2019-04-01T04:56:08.079Z,99.99
2019-04-01T04:57:08.044Z,99.99
2019-04-01T04:58:08.012Z,99.99
2019-04-01T04:59:07.938Z,99.99
2019-04-01T05:00:07.921Z,99.99
2019-04-01T05:01:07.880Z,99.99
2019-04-01T05:02:07.826Z,99.99
2019-04-01T05:03:07.764Z,99.99
2019-04-01T05:04:07.731Z,99.99
2019-04-01T05:05:07.714Z,99.99
2019-04-01T05:06:07.639Z,99.99
2019-04-01T05:07:07.705Z,99.99
2019-04-01T05:08:07.547Z,99.99
2019-04-01T05:09:07.507Z,99.99
2019-04-01T05:10:07.462Z,99.99
2019-04-01T05:11:07.417Z,99.99
2019-04-01T05:12:07.375Z,99.99
2019-04-01T05:13:07.461Z,99.99
2019-04-01T05:14:07.871Z,99.99
2019-04-01T05:15:07.280Z,99.99
2019-04-01T05:16:07.210Z,99.99
2019-04-01T05:17:07.238Z,99.99
2019-04-01T05:18:07.109Z,99.99
2019-04-01T05:19:07.078Z,99.99
2019-04-01T05:20:07.067Z,99.99
2019-04-01T05:21:07.022Z,99.99
2019-04-01T05:22:06.962Z,99.99
2019-04-01T05:23:06.920Z,99.99
2019-04-01T05:24:06.859Z,99.99
2019-04-01T05:25:06.806Z,99.99
2019-04-01T05:26:07.375Z,99.99
2019-04-01T05:27:06.724Z,99.99
2019-04-01T05:28:07.375Z,99.99
2019-04-01T05:29:06.648Z,99.99
2019-04-01T05:30:06.595Z,99.99
2019-04-01T05:31:06.557Z,99.99
2019-04-01T05:32:06.511Z,99.99
2019-04-01T05:33:06.501Z,99.99
2019-04-01T05:34:06.432Z,99.99
2019-04-01T05:35:06.394Z,99.99
2019-04-01T05:36:06.386Z,99.99
2019-04-01T05:37:09.015Z,99.99
2019-04-01T05:38:06.267Z,99.99
2019-04-01T05:39:06.239Z,99.99
2019-04-01T05:40:06.276Z,99.99
2019-04-01T05:41:06.121Z,99.99
2019-04-01T05:42:06.146Z,99.99
2019-04-01T05:43:06.031Z,99.99
2019-04-01T05:44:06.010Z,99.99
2019-04-01T05:45:05.956Z,99.99
2019-04-01T05:46:05.928Z,99.99
2019-04-01T05:47:05.867Z,99.99
2019-04-01T05:48:05.870Z,99.99
2019-04-01T05:49:05.795Z,99.99
2019-04-01T05:50:05.733Z,99.99
2019-04-01T05:51:05.698Z,99.99
2019-04-01T05:52:05.662Z,99.99
2019-04-01T05:53:05.641Z,99.99
2019-04-01T05:54:05.577Z,99.99
2019-04-01T05:55:08.702Z,99.99
2019-04-01T05:56:05.495Z,99.99
2019-04-01T05:57:05.478Z,99.99
2019-04-01T05:58:05.498Z,99.99
2019-04-01T05:59:05.369Z,99.99
2019-04-01T06:00:05.343Z,99.99
2019-04-01T06:01:05.281Z,99.99
2019-04-01T06:02:05.254Z,99.99
2019-04-01T06:03:05.193Z,99.99
2019-04-01T06:04:05.144Z,99.99
2019-04-01T06:05:05.120Z,99.99
2019-04-01T06:06:05.064Z,99.99
2019-04-01T06:07:05.009Z,99.99
2019-04-01T06:08:05.021Z,99.99
2019-04-01T06:09:04.953Z,99.99
2019-04-01T06:10:04.885Z,99.99
2019-04-01T06:11:04.882Z,99.99
2019-04-01T06:12:04.804Z,99.99
2019-04-01T06:13:04.773Z,99.99
2019-04-01T06:14:04.734Z,99.99
2019-04-01T06:15:04.726Z,99.99
2019-04-01T06:16:04.709Z,99.99
2019-04-01T06:17:04.612Z,99.99
2019-04-01T06:18:04.562Z,99.99
2019-04-01T06:19:06.067Z,99.99
2019-04-01T06:20:04.505Z,99.99
2019-04-01T06:21:04.433Z,99.99
2019-04-01T06:22:04.389Z,99.99
2019-04-01T06:23:04.427Z,99.99
2019-04-01T06:24:04.309Z,99.99
2019-04-01T06:25:04.314Z,99.99
2019-04-01T06:26:04.283Z,99.99
2019-04-01T06:27:04.195Z,99.99
2019-04-01T06:28:04.145Z,99.99
2019-04-01T06:29:04.096Z,99.99
2019-04-01T06:30:04.062Z,99.99
2019-04-01T06:31:04.034Z,99.99
2019-04-01T06:32:04.000Z,99.99
2019-04-01T06:33:05.479Z,99.99
2019-04-01T06:34:03.889Z,99.99
2019-04-01T06:35:03.882Z,99.99
2019-04-01T06:36:03.830Z,99.99
2019-04-01T06:37:03.825Z,99.99
2019-04-01T06:38:03.731Z,99.99
2019-04-01T06:39:03.687Z,99.99
2019-04-01T06:40:03.652Z,99.99
2019-04-01T06:41:03.613Z,99.99
2019-04-01T06:42:06.820Z,99.99
2019-04-01T06:43:03.645Z,99.99
2019-04-01T06:44:03.523Z,99.99
2019-04-01T06:45:03.443Z,99.99
2019-04-01T06:46:03.434Z,99.99
2019-04-01T06:47:03.370Z,99.99
2019-04-01T06:48:03.321Z,99.99
2019-04-01T06:49:03.299Z,99.99
2019-04-01T06:50:03.272Z,99.99
2019-04-01T06:51:03.218Z,99.99
2019-04-01T06:52:03.171Z,99.99
2019-04-01T06:53:03.143Z,99.99
2019-04-01T06:54:03.125Z,99.99
2019-04-01T06:55:03.158Z,99.99
2019-04-01T06:56:03.041Z,99.99
2019-04-01T06:57:02.967Z,99.99
2019-04-01T06:58:02.943Z,99.99
2019-04-01T06:59:02.890Z,99.99
2019-04-01T07:00:02.974Z,97.99
2019-04-01T07:01:02.820Z,91.55
2019-04-01T07:02:02.784Z,86.21
2019-04-01T07:03:02.747Z,79.82
2019-04-01T07:04:02.734Z,79.67
2019-04-01T07:05:02.709Z,78.23
2019-04-01T07:06:02.634Z,77.09
2019-04-01T07:07:02.610Z,75.09
2019-04-01T07:08:02.641Z,73.75
2019-04-01T07:09:02.580Z,74.17
2019-04-01T07:10:02.535Z,73.98
2019-04-01T07:11:02.497Z,73.37
2019-04-01T07:12:02.448Z,73.75
2019-04-01T07:13:02.411Z,73.85
2019-04-01T07:14:02.405Z,73.79
2019-04-01T07:15:02.357Z,75.07
2019-04-01T07:16:14.892Z,73.32
2019-04-01T07:17:02.312Z,71.31
2019-04-01T07:18:02.255Z,69.87
2019-04-01T07:19:02.240Z,69.72
2019-04-01T07:20:02.196Z,69.76
2019-04-01T07:21:02.186Z,69.47
2019-04-01T07:22:02.127Z,67.75
2019-04-01T07:23:02.119Z,67.59
2019-04-01T07:24:02.082Z,66.63
2019-04-01T07:25:02.065Z,66.41
2019-04-01T07:26:02.127Z,67.55
2019-04-01T07:27:02.000Z,67.24
2019-04-01T07:28:01.997Z,67.21
2019-04-01T07:29:01.953Z,69.08
2019-04-01T07:30:01.915Z,70.38
2019-04-01T07:31:01.887Z,72.19
2019-04-01T07:32:01.852Z,72.86
2019-04-01T07:33:01.833Z,72.38
2019-04-01T07:34:01.813Z,72.28
2019-04-01T07:35:01.830Z,72.28
2019-04-01T07:36:01.764Z,71.72
2019-04-01T07:37:01.747Z,73.43
2019-04-01T07:38:01.712Z,74.01
2019-04-01T07:39:01.710Z,73.24
2019-04-01T07:40:01.665Z,71.88
2019-04-01T07:41:01.648Z,71.37
2019-04-01T07:42:01.619Z,70.03
2019-04-01T07:43:01.586Z,70.98
2019-04-01T07:44:01.580Z,70.42
2019-04-01T07:45:01.523Z,70.15
2019-04-01T07:46:01.527Z,71.58
2019-04-01T07:47:01.486Z,73.39
2019-04-01T07:48:01.466Z,72.44
2019-04-01T07:49:01.457Z,72.34
2019-04-01T07:50:01.419Z,73.33
2019-04-01T07:51:01.441Z,73.43
2019-04-01T07:52:01.380Z,70.28
2019-04-01T07:53:01.325Z,69.90
2019-04-01T07:54:01.333Z,71.43
2019-04-01T07:55:01.273Z,72.09
2019-04-01T07:56:02.665Z,71.27
2019-04-01T07:57:01.262Z,70.42
2019-04-01T07:58:01.224Z,69.27
2019-04-01T07:59:01.275Z,69.21
2019-04-01T08:00:01.169Z,68.96
2019-04-01T08:01:01.153Z,67.84
2019-04-01T08:02:01.126Z,66.13
2019-04-01T08:03:01.086Z,66.70
2019-04-01T08:04:01.089Z,66.16
2019-04-01T08:05:01.026Z,64.50
2019-04-01T08:06:01.008Z,63.67
2019-04-01T08:07:01.002Z,62.97
2019-04-01T08:08:00.959Z,64.56
2019-04-01T08:09:00.942Z,65.36
2019-04-01T08:10:00.930Z,65.23
2019-04-01T08:11:00.895Z,65.10
2019-04-01T08:12:00.855Z,66.12
2019-04-01T08:13:00.873Z,68.88
2019-04-01T08:14:02.528Z,69.08
2019-04-01T08:15:00.779Z,68.70
2019-04-01T08:16:00.758Z,68.79
2019-04-01T08:17:00.751Z,68.70
2019-04-01T08:18:00.704Z,70.42
2019-04-01T08:19:00.676Z,69.87
2019-04-01T08:20:00.668Z,68.54
2019-04-01T08:21:00.628Z,67.33
2019-04-01T08:22:00.677Z,67.43
2019-04-01T08:23:00.610Z,66.09
2019-04-01T08:24:00.563Z,66.56
2019-04-01T08:25:00.529Z,65.96
2019-04-01T08:26:00.529Z,66.06
2019-04-01T08:27:00.493Z,66.31
2019-04-01T08:28:00.503Z,67.74
2019-04-01T08:29:00.422Z,67.68
2019-04-01T08:30:00.461Z,67.62
2019-04-01T08:31:00.375Z,65.23
2019-04-01T08:32:00.381Z,64.65
2019-04-01T08:33:00.332Z,64.47
2019-04-01T08:34:00.289Z,65.20
2019-04-01T08:35:00.484Z,67.62
2019-04-01T08:36:00.235Z,66.95
2019-04-01T08:37:00.239Z,65.80
2019-04-01T08:38:00.279Z,67.14
2019-04-01T08:39:00.174Z,66.99
2019-04-01T08:40:00.383Z,65.97
2019-04-01T08:41:00.126Z,63.76
2019-04-01T08:42:00.109Z,63.07
2019-04-01T08:43:00.068Z,62.97
2019-04-01T08:44:03.123Z,63.45
2019-04-01T08:45:00.029Z,63.80
2019-04-01T08:45:59.984Z,65.14
2019-04-01T08:47:00.123Z,66.53
2019-04-01T08:47:59.961Z,66.85
2019-04-01T08:48:59.942Z,66.38
2019-04-01T08:49:59.913Z,65.52
2019-04-01T08:50:59.907Z,64.94
2019-04-01T08:51:59.834Z,64.37
2019-04-01T08:52:59.837Z,65.52
2019-04-01T08:53:59.794Z,64.88
2019-04-01T08:54:59.771Z,64.22
2019-04-01T08:56:00.963Z,63.96
2019-04-01T08:56:59.767Z,65.64
2019-04-01T08:57:59.671Z,64.98
2019-04-01T08:58:59.654Z,65.04
2019-04-01T08:59:59.694Z,64.88
2019-04-01T09:00:59.712Z,64.98
2019-04-01T09:01:59.577Z,64.91
2019-04-01T09:02:59.585Z,64.09
2019-04-01T09:03:59.569Z,62.52
2019-04-01T09:04:59.548Z,62.33
2019-04-01T09:05:59.560Z,62.43
2019-04-01T09:06:59.502Z,62.17
2019-04-01T09:07:59.475Z,62.17
2019-04-01T09:08:59.412Z,62.37
2019-04-01T09:09:59.453Z,62.87
2019-04-01T09:10:59.391Z,62.17
2019-04-01T09:11:59.339Z,59.01
2019-04-01T09:12:59.320Z,58.50
2019-04-01T09:13:59.334Z,59.52
2019-04-01T09:14:59.279Z,60.22
2019-04-01T09:15:59.255Z,58.56
2019-04-01T09:16:59.241Z,59.65
2019-04-01T09:17:59.230Z,60.67
2019-04-01T09:18:59.175Z,60.99
2019-04-01T09:19:59.175Z,58.50
2019-04-01T09:20:59.139Z,58.02
2019-04-01T09:21:59.167Z,58.72
2019-04-01T09:22:59.464Z,57.92
2019-04-01T09:23:59.094Z,56.76
2019-04-01T09:24:59.063Z,55.21
2019-04-01T09:25:59.015Z,56.83
2019-04-01T09:26:59.067Z,56.26
2019-04-01T09:27:58.980Z,56.74
2019-04-01T09:28:58.947Z,55.87
2019-04-01T09:29:58.991Z,54.53
2019-04-01T09:30:58.917Z,55.01
2019-04-01T09:31:58.893Z,56.76
2019-04-01T09:32:58.863Z,55.26
2019-04-01T09:33:58.860Z,53.89
2019-04-01T09:34:58.847Z,53.96
2019-04-01T09:35:58.803Z,55.44
2019-04-01T09:36:58.774Z,55.34
2019-04-01T09:37:58.760Z,56.59
2019-04-01T09:38:58.757Z,56.10
2019-04-01T09:39:58.725Z,56.59
2019-04-01T09:40:58.694Z,56.56
2019-04-01T09:41:58.669Z,57.83
2019-04-01T09:42:58.639Z,56.99
2019-04-01T09:43:58.615Z,56.87
2019-04-01T09:44:58.578Z,56.84
2019-04-01T09:45:58.627Z,58.06
2019-04-01T09:46:58.541Z,58.73
2019-04-01T09:47:58.555Z,59.49
2019-04-01T09:48:58.495Z,59.66
2019-04-01T09:49:58.493Z,59.47
2019-04-01T09:50:58.488Z,60.80
2019-04-01T09:51:58.434Z,60.39
2019-04-01T09:52:58.425Z,60.71
2019-04-01T09:53:58.423Z,59.66
2019-04-01T09:54:58.388Z,59.62
2019-04-01T09:55:58.347Z,59.94
2019-04-01T09:56:58.309Z,61.21
2019-04-01T09:57:58.348Z,58.94
2019-04-01T09:58:58.269Z,55.97
2019-04-01T09:59:58.260Z,56.16
2019-04-01T10:00:58.255Z,56.48
2019-04-01T10:01:58.196Z,54.91
2019-04-01T10:02:58.170Z,54.99
2019-04-01T10:03:58.149Z,55.36
2019-04-01T10:04:58.133Z,56.42
2019-04-01T10:05:58.116Z,56.45
2019-04-01T10:06:58.080Z,56.32
2019-04-01T10:07:58.075Z,55.73
2019-04-01T10:08:58.064Z,56.08
2019-04-01T10:09:58.034Z,58.40
2019-04-01T10:10:57.998Z,57.13
2019-04-01T10:11:59.574Z,57.48
2019-04-01T10:12:57.978Z,57.80
2019-04-01T10:13:57.921Z,57.90
2019-04-01T10:14:57.959Z,57.61
2019-04-01T10:15:57.873Z,58.22
2019-04-01T10:16:57.854Z,58.12
2019-04-01T10:17:57.880Z,57.45
2019-04-01T10:18:57.809Z,56.97
2019-04-01T10:20:00.692Z,58.91
2019-04-01T10:20:57.752Z,56.90
2019-04-01T10:21:57.756Z,56.10
2019-04-01T10:22:57.691Z,57.26
2019-04-01T10:23:57.674Z,57.45
2019-04-01T10:24:57.680Z,57.83
2019-04-01T10:25:57.642Z,58.18
2019-04-01T10:26:57.607Z,57.99
2019-04-01T10:27:57.601Z,59.48
2019-04-01T10:28:57.625Z,58.37
2019-04-01T10:29:57.540Z,56.16
2019-04-01T10:30:57.501Z,54.70
2019-04-01T10:31:57.506Z,55.34
2019-04-01T10:32:57.447Z,56.65
2019-04-01T10:33:57.423Z,59.43
2019-04-01T10:34:57.993Z,59.87
2019-04-01T10:35:57.417Z,58.34
2019-04-01T10:36:57.374Z,56.52
2019-04-01T10:37:57.357Z,56.77
2019-04-01T10:38:57.386Z,56.82
2019-04-01T10:40:00.066Z,58.73
2019-04-01T10:40:57.265Z,60.48
2019-04-01T10:41:57.259Z,58.86
2019-04-01T10:42:57.230Z,58.95
2019-04-01T10:43:57.195Z,58.76
2019-04-01T10:44:57.168Z,59.52
2019-04-01T10:45:57.134Z,59.75
2019-04-01T10:46:57.307Z,58.44
2019-04-01T10:47:57.121Z,59.01
2019-04-01T10:48:57.077Z,57.76
2019-04-01T10:49:57.136Z,57.83
2019-04-01T10:50:57.084Z,58.12
2019-04-01T10:51:57.138Z,57.92
2019-04-01T10:52:57.128Z,57.54
2019-04-01T10:53:56.986Z,58.02
2019-04-01T10:54:57.011Z,57.86
2019-04-01T10:55:56.888Z,57.38
2019-04-01T10:56:56.882Z,56.61
2019-04-01T10:57:56.840Z,57.09
2019-04-01T10:58:56.886Z,57.83
2019-04-01T10:59:56.798Z,57.23
2019-04-01T11:00:56.803Z,58.76
2019-04-01T11:01:56.828Z,59.43
2019-04-01T11:02:56.742Z,59.65
2019-04-01T11:03:56.778Z,60.57
2019-04-01T11:04:56.688Z,57.92
2019-04-01T11:05:56.721Z,57.60
2019-04-01T11:06:56.659Z,57.21
2019-04-01T11:07:56.670Z,56.67
2019-04-01T11:08:56.590Z,56.35
2019-04-01T11:09:56.542Z,56.52
2019-04-01T11:10:56.558Z,57.95
2019-04-01T11:11:56.500Z,58.91
2019-04-01T11:12:56.495Z,57.57
2019-04-01T11:13:56.422Z,57.28
2019-04-01T11:14:56.426Z,56.97
2019-04-01T11:15:56.378Z,57.92
2019-04-01T11:16:56.367Z,58.81
2019-04-01T11:17:56.337Z,57.76
2019-04-01T11:18:58.094Z,57.99
2019-04-01T11:19:56.310Z,59.65
2019-04-01T11:20:57.017Z,58.79
2019-04-01T11:21:56.234Z,59.11
2019-04-01T11:22:56.249Z,59.58
2019-04-01T11:23:56.196Z,59.08
2019-04-01T11:24:56.165Z,58.02
2019-04-01T11:25:56.124Z,58.15
2019-04-01T11:26:56.107Z,58.34
2019-04-01T11:27:56.072Z,59.17
2019-04-01T11:28:56.050Z,59.08
2019-04-01T11:29:56.033Z,58.59
2019-04-01T11:30:56.051Z,60.22
2019-04-01T11:31:55.985Z,59.87
2019-04-01T11:32:55.998Z,60.44
2019-04-01T11:33:55.960Z,58.81
2019-04-01T11:34:56.268Z,58.22
2019-04-01T11:35:56.008Z,58.66
2019-04-01T11:36:55.914Z,60.55
2019-04-01T11:37:55.839Z,61.05
2019-04-01T11:38:55.818Z,61.91
2019-04-01T11:39:55.790Z,60.99
2019-04-01T11:40:55.747Z,59.68
2019-04-01T11:41:55.777Z,58.79
2019-04-01T11:42:55.722Z,59.72
2019-04-01T11:43:55.711Z,60.19
2019-04-01T11:44:55.699Z,60.96
2019-04-01T11:45:55.630Z,60.70
2019-04-01T11:46:55.663Z,60.48
2019-04-01T11:47:55.592Z,59.94
2019-04-01T11:48:55.576Z,60.29
2019-04-01T11:49:56.988Z,61.28
2019-04-01T11:50:55.503Z,61.05
2019-04-01T11:51:55.495Z,60.48
2019-04-01T11:52:55.468Z,60.48
2019-04-01T11:53:58.169Z,62.33
2019-04-01T11:54:55.386Z,62.81
2019-04-01T11:55:55.348Z,62.84
2019-04-01T11:56:55.335Z,59.55
2019-04-01T11:57:55.330Z,59.55
2019-04-01T11:58:56.853Z,59.84
2019-04-01T11:59:55.272Z,61.76
2019-04-01T12:00:55.361Z,62.81
2019-04-01T12:01:55.224Z,62.14
2019-04-01T12:02:56.032Z,62.11
2019-04-01T12:03:55.233Z,62.40
2019-04-01T12:04:55.115Z,62.59
2019-04-01T12:05:55.189Z,62.59
2019-04-01T12:06:55.101Z,63.16
2019-04-01T12:07:55.032Z,61.91
2019-04-01T12:08:55.078Z,62.52
2019-04-01T12:09:55.959Z,62.43
2019-04-01T12:10:54.980Z,63.51
2019-04-01T12:11:54.930Z,62.07
2019-04-01T12:12:54.918Z,59.84
2019-04-01T12:13:54.882Z,62.04
2019-04-01T12:14:54.844Z,61.66
2019-04-01T12:15:54.840Z,61.85
2019-04-01T12:16:54.939Z,61.91
2019-04-01T12:17:56.615Z,63.73
2019-04-01T12:18:54.825Z,63.35
2019-04-01T12:19:54.758Z,63.35
2019-04-01T12:20:54.708Z,62.97
2019-04-01T12:21:54.667Z,64.02
2019-04-01T12:22:54.651Z,64.88
2019-04-01T12:23:54.636Z,63.57
2019-04-01T12:24:54.604Z,62.43
2019-04-01T12:25:54.616Z,62.23
2019-04-01T12:26:54.558Z,63.51
2019-04-01T12:27:54.517Z,61.94
2019-04-01T12:28:54.507Z,61.37
2019-04-01T12:29:54.471Z,62.77
2019-04-01T12:30:54.443Z,63.48
2019-04-01T12:31:54.405Z,63.70
2019-04-01T12:32:54.381Z,64.18
2019-04-01T12:33:54.351Z,62.55
2019-04-01T12:34:54.345Z,62.84
2019-04-01T12:35:54.328Z,61.69
2019-04-01T12:36:54.269Z,62.55
2019-04-01T12:37:54.245Z,62.14
2019-04-01T12:38:54.216Z,63.06
2019-04-01T12:39:54.209Z,64.09
2019-04-01T12:40:54.154Z,63.42
2019-04-01T12:41:54.160Z,64.69
2019-04-01T12:42:54.106Z,63.64
2019-04-01T12:43:54.185Z,62.59
2019-04-01T12:44:57.646Z,62.68
2019-04-01T12:45:54.026Z,62.52
2019-04-01T12:46:54.062Z,64.82
2019-04-01T12:47:54.011Z,64.05
2019-04-01T12:48:59.675Z,62.40
2019-04-01T12:49:53.934Z,62.52
2019-04-01T12:50:53.893Z,63.26
2019-04-01T12:51:54.125Z,63.45